Orbital elements of COSMOS 970 DEB
| Launched | 20 December 1977 |
| Flight ended | – |
| Launch site | Tyuratam Missile and Space Center, Kazakhstan (Also known as Baikonur Cosmodrome) |
| Owner | Commonwealth of Independent States (former USSR) |
| NORAD ID | 64980 |
| Date fetched |
Epoch osculation |
Inc. [°] |
Ecc. | RA asc node [hr] |
Arg Peri. [°] |
Mean anom [°] |
Mean motion [rev/day] |
Abs. mag |
| Date fetched |
Epoch osculation |
Inc. [°] |
Ecc. | RA asc node [hr] |
Arg Peri. [°] |
Mean anom [°] |
Mean motion [rev/day] |
Abs. mag |
| 2026 May 03 17:57 | 2026 Apr 30 08:13:05 | 65.8296 | 0.01207 | 7.2611 | 191.4908 | 237.1125 | 13.72796 | – |
| 2026 May 02 17:57 | 2026 Apr 30 08:13:05 | 65.8296 | 0.01207 | 7.2611 | 191.4908 | 237.1125 | 13.72796 | – |
| 2026 May 01 17:56 | 2026 Apr 30 08:13:05 | 65.8296 | 0.01207 | 7.2611 | 191.4908 | 237.1125 | 13.72796 | – |
| 2026 Apr 30 17:56 | 2026 Apr 30 08:13:05 | 65.8296 | 0.01207 | 7.2611 | 191.4908 | 237.1125 | 13.72796 | – |
| 2026 Apr 29 17:57 | 2026 Apr 20 19:43:09 | 65.8296 | 0.01216 | 8.8239 | 196.0544 | 237.1125 | 13.72796 | – |
| 2026 Apr 28 17:56 | 2026 Apr 20 19:43:09 | 65.8296 | 0.01216 | 8.8239 | 196.0544 | 237.1125 | 13.72796 | – |
| 2026 Apr 27 17:58 | 2026 Apr 20 19:43:09 | 65.8296 | 0.01216 | 8.8239 | 196.0544 | 237.1125 | 13.72796 | – |
| 2026 Apr 26 17:58 | 2026 Apr 20 19:43:09 | 65.8296 | 0.01216 | 8.8239 | 196.0544 | 237.1125 | 13.72796 | – |
| 2026 Apr 25 17:58 | 2026 Apr 20 19:43:09 | 65.8296 | 0.01216 | 8.8239 | 196.0544 | 237.1125 | 13.72796 | – |
| 2026 Apr 24 17:59 | 2026 Apr 20 19:43:09 | 65.8296 | 0.01216 | 8.8239 | 196.0544 | 237.1125 | 13.72796 | – |
| 2026 Apr 23 17:57 | 2026 Apr 19 07:57:37 | 65.8297 | 0.01217 | 9.0685 | 196.7534 | 237.1125 | 13.72796 | – |
| 2026 Apr 22 17:57 | 2026 Apr 19 07:57:37 | 65.8297 | 0.01217 | 9.0685 | 196.7534 | 237.1125 | 13.72796 | – |
| 2026 Apr 21 17:57 | 2026 Apr 19 07:57:37 | 65.8297 | 0.01217 | 9.0685 | 196.7534 | 237.1125 | 13.72796 | – |
| 2026 Apr 20 17:57 | 2026 Apr 19 07:57:37 | 65.8297 | 0.01217 | 9.0685 | 196.7534 | 237.1125 | 13.72796 | – |
| 2026 Apr 19 17:58 | 2026 Apr 19 07:57:37 | 65.8297 | 0.01217 | 9.0685 | 196.7534 | 237.1125 | 13.72796 | – |
| 2026 Apr 18 17:56 | 2026 Apr 12 21:07:39 | 65.8306 | 0.01222 | 10.1275 | 199.7637 | 237.1125 | 13.72796 | – |
| 2026 Apr 16 17:57 | 2026 Apr 12 21:07:39 | 65.8306 | 0.01222 | 10.1275 | 199.7637 | 237.1125 | 13.72796 | – |
| 2026 Apr 14 17:57 | 2026 Apr 12 21:07:39 | 65.8306 | 0.01222 | 10.1275 | 199.7637 | 237.1125 | 13.72796 | – |
| 2026 Apr 13 17:57 | 2026 Apr 12 21:07:39 | 65.8306 | 0.01222 | 10.1275 | 199.7637 | 237.1125 | 13.72796 | – |
| 2026 Apr 12 17:57 | 2026 Apr 08 11:27:26 | 65.8311 | 0.01226 | 10.8501 | 201.7952 | 237.1125 | 13.72796 | – |
| 2026 Apr 11 17:57 | 2026 Apr 08 11:27:26 | 65.8311 | 0.01226 | 10.8501 | 201.7952 | 237.1125 | 13.72796 | – |
| 2026 Apr 10 17:58 | 2026 Apr 08 11:27:26 | 65.8311 | 0.01226 | 10.8501 | 201.7952 | 237.1125 | 13.72796 | – |
| 2026 Apr 09 18:01 | 2026 Apr 08 11:27:26 | 65.8311 | 0.01226 | 10.8501 | 201.7952 | 237.1125 | 13.72796 | – |
| 2026 Apr 08 17:57 | 2026 Apr 08 11:27:26 | 65.8311 | 0.01226 | 10.8501 | 201.7952 | 237.1125 | 13.72796 | – |
| 2026 Apr 07 17:57 | 2026 Apr 01 00:09:02 | 65.8316 | 0.01231 | 12.0763 | 205.2000 | 237.1125 | 13.72796 | – |
| 2026 Apr 06 17:57 | 2026 Apr 01 00:09:02 | 65.8316 | 0.01231 | 12.0763 | 205.2000 | 237.1125 | 13.72796 | – |